RJAA/NRT METAR and TAF weather

Enter ICAO airport designator
Station Type Date Time Source
RJAA METAR 2021/09/28 16:00 UTC NOAA

RJAA 281600Z 34004KT 9999 FEW025 17/16 Q1017 NOSIG


Station Type Date Time Source
RJAA Decoded METAR 2021/09/28 16:00 UTC NOAA

New Tokyo Inter-National Airport, Japan (RJAA) 35-46N 140-23E 44M
Sep 28, 2021 - 12:00 PM EDT / 2021.09.28 1600 UTC
Wind: from the NNW (340 degrees) at 5 MPH (4 KT):0
Visibility: greater than 7 mile(s):0
Sky conditions: mostly clear
Temperature: 62 F (17 C)
Dew Point: 60 F (16 C)
Relative Humidity: 93%
Pressure (altimeter): 30.03 in. Hg (1017 hPa)
ob: RJAA 281600Z 34004KT 9999 FEW025 17/16 Q1017 NOSIG
cycle: 16

Station Type Date Time Source
RJAA TAF 2021/09/28 12:30 UTC NOAA

TAF TAF RJAA 281105Z 2812/2918 02006KT 9999 FEW020
TEMPO 2818/2822 3000 BR FEW002 BKN004
BECMG 2900/2903 12008KT
BECMG 2912/2915 04005KT

Example: see airport list